Culver, Oregon
Current Conditions -  °F | °C
As of 12:56 AM on Thursday 23 Oct 2014 (Local Time) from KRDM Reporting Station
Broken Clouds Broken Clouds  
Wind Chill: 54°   Ceiling: 6000
Heat Index: 54°   Visibility: 10mi
Dew Point: 44°   Wind: 8mph
Humidity: 69%   Direction: 190°S
Pressure: 29.82"   Gusts: NA
Location:  44.53°N, 121.21°W
Report Text: KRDM 230756Z AUTO 19007KT 10SM SCT046 BKN060 BKN070 12/07 A2982 RMK AO2 RAB17E26 SLP086 P0000 T01220067 401720072
Loading
Personal Weather Stations






























Interactive Weather Map
Tropical Storm Tracking
New forecast layout! Learn more

10-Day Weather Forecast

Advertisements
Track Severe Weather on mobile